createdAt,value
2022-09-03T00:01:25.442Z,8.74
2022-09-03T00:03:59.698Z,8.70
2022-09-03T00:06:38.625Z,8.68
2022-09-03T00:09:16.114Z,8.63
2022-09-03T00:11:56.167Z,8.58
2022-09-03T00:14:33.292Z,8.56
2022-09-03T00:17:06.111Z,8.54
2022-09-03T00:19:37.412Z,8.50
2022-09-03T00:22:19.777Z,8.46
2022-09-03T00:24:50.426Z,8.41
2022-09-03T00:27:22.796Z,8.38
2022-09-03T00:30:04.884Z,8.36
2022-09-03T00:32:59.519Z,8.29
2022-09-03T00:35:32.050Z,8.25
2022-09-03T00:38:01.045Z,8.21
2022-09-03T00:40:51.743Z,8.19
2022-09-03T00:43:38.384Z,8.16
2022-09-03T00:46:25.074Z,8.14
2022-09-03T00:49:14.567Z,8.12
2022-09-03T00:51:56.727Z,8.10
2022-09-03T00:54:42.206Z,8.08
2022-09-03T00:57:26.007Z,8.08
2022-09-03T01:00:21.969Z,8.08
2022-09-03T01:03:08.169Z,8.09
2022-09-03T01:05:42.189Z,8.08
2022-09-03T01:08:32.395Z,8.08
2022-09-03T01:11:41.497Z,8.07
2022-09-03T01:14:20.521Z,8.03
2022-09-03T01:17:17.883Z,8.01
2022-09-03T01:20:11.878Z,7.98
2022-09-03T01:22:54.775Z,7.94
2022-09-03T01:25:32.599Z,7.89
2022-09-03T01:28:35.155Z,7.85
2022-09-03T01:31:12.275Z,7.82
2022-09-03T01:34:01.706Z,7.79
2022-09-03T01:36:48.109Z,7.77
2022-09-03T01:39:50.512Z,7.76
2022-09-03T01:42:46.338Z,7.73
2022-09-03T01:45:41.876Z,7.68
2022-09-03T01:48:47.606Z,7.61
2022-09-03T01:51:22.384Z,7.57
2022-09-03T01:54:25.283Z,7.56
2022-09-03T01:57:15.110Z,7.53
2022-09-03T02:00:08.842Z,7.48
2022-09-03T02:02:37.277Z,7.46
2022-09-03T02:05:21.386Z,7.41
2022-09-03T02:07:53.628Z,7.37
2022-09-03T02:10:32.451Z,7.37
2022-09-03T02:13:09.874Z,7.34
2022-09-03T02:15:42.469Z,7.29
2022-09-03T02:18:18.166Z,7.25
2022-09-03T02:20:48.159Z,7.19
2022-09-03T02:23:17.072Z,7.16
2022-09-03T02:25:59.480Z,7.16
2022-09-03T02:28:29.594Z,7.14
2022-09-03T02:30:58.522Z,7.13
2022-09-03T02:33:27.395Z,7.12
2022-09-03T02:35:55.550Z,7.09
2022-09-03T02:38:26.793Z,7.08
2022-09-03T02:40:55.406Z,7.06
2022-09-03T02:43:29.898Z,7.03
2022-09-03T02:46:03.053Z,6.99
2022-09-03T02:48:31.058Z,6.97
2022-09-03T02:50:59.023Z,6.93
2022-09-03T02:53:29.143Z,6.92
2022-09-03T02:56:01.618Z,6.90
2022-09-03T02:58:31.834Z,6.86
2022-09-03T03:01:00.175Z,6.85
2022-09-03T03:03:28.720Z,6.83
2022-09-03T03:06:00.761Z,6.79
2022-09-03T03:08:30.571Z,6.77
2022-09-03T03:10:59.435Z,6.76
2022-09-03T03:13:28.571Z,6.72
2022-09-03T03:15:58.775Z,6.69
2022-09-03T03:18:27.873Z,6.66
2022-09-03T03:20:56.281Z,6.64
2022-09-03T03:23:24.417Z,6.63
2022-09-03T03:25:52.155Z,6.61
2022-09-03T03:28:20.493Z,6.58
2022-09-03T03:30:49.293Z,6.55
2022-09-03T03:33:17.316Z,6.51
2022-09-03T03:35:45.282Z,6.48
2022-09-03T03:38:13.076Z,6.44
2022-09-03T03:40:41.011Z,6.42
2022-09-03T03:43:08.883Z,6.41
2022-09-03T03:45:36.729Z,6.39
2022-09-03T03:48:04.914Z,6.36
2022-09-03T03:50:33.090Z,6.31
2022-09-03T03:53:01.824Z,6.29
2022-09-03T03:55:35.127Z,6.30
2022-09-03T03:58:03.344Z,6.28
2022-09-03T04:00:31.359Z,6.28
2022-09-03T04:02:59.667Z,6.24
2022-09-03T04:05:27.557Z,6.22
2022-09-03T04:08:02.998Z,6.19
2022-09-03T04:10:31.067Z,6.17
2022-09-03T04:12:58.831Z,6.16
2022-09-03T04:15:27.021Z,6.16
2022-09-03T04:17:55.584Z,6.16
2022-09-03T04:20:23.348Z,6.17
2022-09-03T04:22:52.042Z,6.18
2022-09-03T04:25:20.102Z,6.19
2022-09-03T04:27:47.865Z,6.19
2022-09-03T04:30:15.769Z,6.19
2022-09-03T04:32:53.734Z,6.21
2022-09-03T04:35:26.516Z,6.24
2022-09-03T04:37:55.425Z,6.28
2022-09-03T04:40:23.383Z,6.31
2022-09-03T04:42:52.696Z,6.35
2022-09-03T04:45:20.639Z,6.40
2022-09-03T04:48:02.534Z,6.48
2022-09-03T04:50:32.651Z,6.61
2022-09-03T04:53:07.133Z,6.66
2022-09-03T04:55:38.014Z,6.72
2022-09-03T04:58:08.071Z,6.94
2022-09-03T05:00:40.011Z,7.06
2022-09-03T05:03:07.787Z,7.07
2022-09-03T05:05:35.722Z,7.08
2022-09-03T05:08:04.391Z,7.10
2022-09-03T05:10:32.197Z,7.16
2022-09-03T05:13:05.772Z,7.23
2022-09-03T05:15:33.738Z,7.31
2022-09-03T05:18:03.429Z,7.41
2022-09-03T05:20:32.956Z,7.51
2022-09-03T05:23:04.400Z,7.62
2022-09-03T05:25:32.584Z,7.73
2022-09-03T05:28:02.188Z,7.85
2022-09-03T05:30:30.161Z,7.97
2022-09-03T05:32:58.022Z,8.07
2022-09-03T05:35:30.115Z,8.17
2022-09-03T05:38:00.323Z,8.27
2022-09-03T05:40:28.264Z,8.37
2022-09-03T05:42:58.789Z,8.48
2022-09-03T05:45:26.821Z,8.58
2022-09-03T05:47:54.828Z,8.68
2022-09-03T05:50:22.694Z,8.79
2022-09-03T05:52:50.601Z,8.89
2022-09-03T05:55:18.425Z,9.00
2022-09-03T05:57:52.550Z,9.11
2022-09-03T06:00:21.001Z,9.23
2022-09-03T06:02:53.290Z,9.36
2022-09-03T06:05:21.381Z,9.48
2022-09-03T06:07:49.744Z,9.60
2022-09-03T06:10:20.210Z,9.73
2022-09-03T06:12:52.221Z,9.85
2022-09-03T06:15:20.154Z,9.99
2022-09-03T06:17:48.059Z,10.12
2022-09-03T06:20:16.233Z,10.26
2022-09-03T06:22:48.993Z,10.39
2022-09-03T06:25:16.984Z,10.53
2022-09-03T06:27:46.005Z,10.67
2022-09-03T06:30:14.448Z,10.80
2022-09-03T06:32:46.308Z,10.93
2022-09-03T06:35:14.207Z,11.06
2022-09-03T06:37:43.065Z,11.19
2022-09-03T06:40:13.323Z,11.33
2022-09-03T06:42:45.862Z,11.47
2022-09-03T06:45:14.653Z,11.61
2022-09-03T06:47:42.570Z,11.74
2022-09-03T06:50:10.484Z,11.87
2022-09-03T06:52:38.359Z,12.01
2022-09-03T06:55:07.257Z,12.15
2022-09-03T06:57:35.129Z,12.29
2022-09-03T07:00:04.444Z,12.42
2022-09-03T07:02:33.905Z,12.55
2022-09-03T07:05:01.770Z,12.67
2022-09-03T07:07:29.846Z,12.80
2022-09-03T07:09:57.705Z,12.93
2022-09-03T07:12:25.570Z,13.07
2022-09-03T07:14:53.476Z,13.22
2022-09-03T07:17:21.545Z,13.38
2022-09-03T07:19:49.586Z,13.50
2022-09-03T07:22:17.546Z,13.63
2022-09-03T07:24:47.879Z,13.77
2022-09-03T07:27:15.774Z,13.92
2022-09-03T07:29:43.600Z,14.05
2022-09-03T07:32:11.577Z,14.18
2022-09-03T07:34:39.742Z,14.33
2022-09-03T07:37:08.574Z,14.45
2022-09-03T07:39:36.511Z,14.58
2022-09-03T07:42:04.978Z,14.72
2022-09-03T07:44:33.080Z,14.86
2022-09-03T07:47:01.059Z,15.00
2022-09-03T07:49:29.197Z,15.15
2022-09-03T07:51:57.160Z,15.27
2022-09-03T07:54:27.520Z,15.39
2022-09-03T07:56:55.594Z,15.52
2022-09-03T07:59:24.754Z,15.68
2022-09-03T08:01:53.329Z,15.80
2022-09-03T08:04:22.265Z,15.89
2022-09-03T08:06:50.186Z,16.02
2022-09-03T08:09:18.256Z,16.15
2022-09-03T08:11:46.016Z,16.28
2022-09-03T08:14:14.419Z,16.41
2022-09-03T08:16:49.896Z,16.52
2022-09-03T08:19:19.138Z,16.64
2022-09-03T08:21:47.928Z,16.80
2022-09-03T08:24:18.046Z,16.92
2022-09-03T08:26:51.361Z,17.03
2022-09-03T08:29:20.904Z,17.16
2022-09-03T08:31:49.207Z,17.28
2022-09-03T08:34:18.166Z,17.41
2022-09-03T08:36:47.548Z,17.51
2022-09-03T08:39:16.722Z,17.61
2022-09-03T08:41:47.863Z,17.73
2022-09-03T08:44:30.663Z,17.84
2022-09-03T08:47:10.717Z,17.91
2022-09-03T08:49:56.910Z,18.01
2022-09-03T08:52:52.425Z,18.11
2022-09-03T08:55:27.865Z,18.19
2022-09-03T08:58:05.876Z,18.26
2022-09-03T09:01:12.174Z,18.34
2022-09-03T09:03:58.541Z,18.41
2022-09-03T09:06:50.672Z,18.46
2022-09-03T09:09:50.282Z,18.57
2022-09-03T09:12:46.299Z,18.66
2022-09-03T09:15:14.792Z,18.81
2022-09-03T09:17:45.417Z,18.91
2022-09-03T09:20:33.093Z,19.01
2022-09-03T09:23:13.551Z,19.11
2022-09-03T09:25:51.336Z,19.18
2022-09-03T09:28:21.776Z,19.22
2022-09-03T09:30:52.471Z,19.27
2022-09-03T09:33:24.117Z,19.31
2022-09-03T09:35:53.210Z,19.34
2022-09-03T09:38:33.068Z,19.35
2022-09-03T09:41:28.958Z,19.36
2022-09-03T09:44:02.487Z,19.38
2022-09-03T09:46:41.291Z,19.50
2022-09-03T09:49:25.244Z,19.61
2022-09-03T09:52:06.323Z,19.68
2022-09-03T09:54:35.015Z,19.73
2022-09-03T09:57:06.657Z,19.77
2022-09-03T09:59:35.375Z,19.82
2022-09-03T10:02:29.041Z,19.89
2022-09-03T10:05:12.443Z,19.98
2022-09-03T10:07:40.525Z,20.05
2022-09-03T10:10:15.058Z,20.12
2022-09-03T10:12:48.330Z,20.16
2022-09-03T10:15:31.618Z,20.21
2022-09-03T10:18:29.021Z,20.30
2022-09-03T10:21:06.758Z,20.36
2022-09-03T10:23:50.811Z,20.38
2022-09-03T10:26:32.237Z,20.43
2022-09-03T10:29:03.479Z,20.52
2022-09-03T10:31:43.533Z,20.58
2022-09-03T10:34:37.624Z,20.63
2022-09-03T10:37:18.789Z,20.61
2022-09-03T10:40:05.850Z,20.66
2022-09-03T10:42:58.655Z,20.72
2022-09-03T10:45:49.598Z,20.80
2022-09-03T10:48:26.746Z,20.88
2022-09-03T10:51:04.382Z,20.96
2022-09-03T10:53:51.661Z,21.03
2022-09-03T10:56:31.848Z,21.05
2022-09-03T10:59:41.085Z,21.06
2022-09-03T11:02:38.112Z,21.09
2022-09-03T11:05:16.111Z,21.16
2022-09-03T11:07:58.815Z,21.28
2022-09-03T11:10:33.143Z,21.33
2022-09-03T11:13:22.255Z,21.35
2022-09-03T11:16:01.414Z,21.39
2022-09-03T11:18:40.131Z,21.43
2022-09-03T11:21:14.131Z,21.43
2022-09-03T11:23:46.222Z,21.43
2022-09-03T11:26:18.999Z,21.47
2022-09-03T11:29:18.549Z,21.51
2022-09-03T11:32:01.962Z,21.55
2022-09-03T11:34:33.340Z,21.60
2022-09-03T11:37:20.846Z,21.64
2022-09-03T11:40:27.283Z,21.69
2022-09-03T11:43:25.662Z,21.70
2022-09-03T11:46:28.560Z,21.76
2022-09-03T11:49:26.214Z,21.86
2022-09-03T11:52:02.988Z,21.86
2022-09-03T11:54:44.780Z,21.80
2022-09-03T11:57:23.602Z,21.79
2022-09-03T11:59:52.192Z,21.81
2022-09-03T12:02:27.348Z,21.83
2022-09-03T12:05:20.891Z,21.84
2022-09-03T12:07:48.857Z,21.86
2022-09-03T12:10:38.647Z,21.89
2022-09-03T12:13:36.131Z,21.88
2022-09-03T12:16:15.668Z,21.86
2022-09-03T12:18:45.955Z,21.89
2022-09-03T12:21:17.714Z,21.88
2022-09-03T12:23:49.391Z,21.86
2022-09-03T12:26:24.199Z,21.86
2022-09-03T12:28:55.747Z,21.86
2022-09-03T12:31:30.286Z,21.87
2022-09-03T12:34:13.539Z,21.88
2022-09-03T12:36:44.023Z,21.88
2022-09-03T12:39:17.969Z,21.92
2022-09-03T12:42:04.031Z,21.92
2022-09-03T12:44:39.775Z,21.93
2022-09-03T12:47:36.628Z,21.95
2022-09-03T12:50:20.371Z,21.98
2022-09-03T12:53:00.010Z,22.01
2022-09-03T12:55:41.903Z,22.06
2022-09-03T12:58:32.727Z,22.10
2022-09-03T13:01:23.155Z,22.10
2022-09-03T13:03:58.635Z,22.09
2022-09-03T13:06:30.910Z,22.10
2022-09-03T13:09:05.725Z,22.14
2022-09-03T13:11:37.595Z,22.20
2022-09-03T13:14:10.261Z,22.20
2022-09-03T13:16:38.085Z,22.17
2022-09-03T13:19:24.333Z,22.16
2022-09-03T13:22:12.929Z,22.12
2022-09-03T13:24:52.950Z,22.08
2022-09-03T13:27:41.511Z,22.09
2022-09-03T13:30:19.901Z,22.19
2022-09-03T13:32:57.701Z,22.33
2022-09-03T13:35:45.449Z,22.34
2022-09-03T13:38:44.273Z,22.31
2022-09-03T13:41:21.511Z,22.26
2022-09-03T13:44:16.336Z,22.20
2022-09-03T13:47:10.177Z,22.19
2022-09-03T13:50:10.550Z,22.20
2022-09-03T13:52:43.224Z,22.18
2022-09-03T13:55:49.061Z,22.20
2022-09-03T13:58:32.880Z,22.22
2022-09-03T14:01:03.746Z,22.24
2022-09-03T14:03:49.449Z,22.22
2022-09-03T14:06:50.943Z,22.22
2022-09-03T14:09:18.719Z,22.18
2022-09-03T14:11:57.856Z,22.16
2022-09-03T14:15:01.994Z,22.13
2022-09-03T14:17:58.498Z,22.11
2022-09-03T14:20:33.636Z,22.13
2022-09-03T14:23:18.882Z,22.13
2022-09-03T14:25:55.215Z,22.14
2022-09-03T14:28:35.337Z,22.16
2022-09-03T14:31:24.571Z,22.16
2022-09-03T14:34:05.120Z,22.15
2022-09-03T14:37:00.360Z,22.15
2022-09-03T14:39:47.804Z,22.11
2022-09-03T14:42:43.058Z,22.13
2022-09-03T14:45:22.892Z,22.14
2022-09-03T14:48:09.074Z,22.15
2022-09-03T14:51:16.436Z,22.15
2022-09-03T14:53:50.440Z,22.15
2022-09-03T14:57:01.012Z,22.15
2022-09-03T14:59:47.260Z,22.13
2022-09-03T15:02:33.959Z,22.10
2022-09-03T15:05:13.486Z,22.10
2022-09-03T15:07:41.413Z,22.03
2022-09-03T15:10:33.245Z,21.98
2022-09-03T15:13:12.397Z,21.96
2022-09-03T15:15:43.206Z,21.87
2022-09-03T15:18:19.775Z,21.76
2022-09-03T15:20:53.078Z,21.69
2022-09-03T15:23:30.897Z,21.60
2022-09-03T15:26:23.718Z,21.62
2022-09-03T15:28:54.368Z,21.65
2022-09-03T15:31:47.052Z,21.67
2022-09-03T15:34:43.021Z,21.69
2022-09-03T15:37:23.692Z,21.69
2022-09-03T15:40:11.354Z,21.67
2022-09-03T15:42:44.593Z,21.64
2022-09-03T15:45:35.887Z,21.60
2022-09-03T15:48:14.239Z,21.56
2022-09-03T15:51:04.016Z,21.54
2022-09-03T15:53:57.173Z,21.52
2022-09-03T15:56:28.421Z,21.49
2022-09-03T15:58:56.597Z,21.47
2022-09-03T16:01:46.209Z,21.45
2022-09-03T16:04:17.125Z,21.41
2022-09-03T16:07:20.302Z,21.37
2022-09-03T16:10:23.633Z,21.33
2022-09-03T16:13:08.973Z,21.26
2022-09-03T16:15:44.929Z,21.20
2022-09-03T16:18:40.280Z,21.14
2022-09-03T16:21:22.950Z,21.09
2022-09-03T16:23:56.694Z,21.01
2022-09-03T16:26:33.833Z,20.94
2022-09-03T16:29:09.213Z,20.87
2022-09-03T16:31:43.521Z,20.80
2022-09-03T16:34:37.549Z,20.74
2022-09-03T16:37:29.245Z,20.73
2022-09-03T16:40:14.961Z,20.66
2022-09-03T16:43:38.869Z,20.66
2022-09-03T16:46:10.542Z,20.76
2022-09-03T16:49:19.545Z,20.51
2022-09-03T16:51:56.138Z,20.27
2022-09-03T16:54:38.230Z,20.11
2022-09-03T16:57:21.953Z,19.96
2022-09-03T16:59:58.444Z,19.80
2022-09-03T17:03:02.130Z,19.63
2022-09-03T17:05:48.357Z,19.44
2022-09-03T17:08:28.584Z,19.26
2022-09-03T17:11:22.149Z,19.11
2022-09-03T17:14:11.866Z,18.88
2022-09-03T17:16:52.666Z,18.65
2022-09-03T17:19:58.245Z,18.36
2022-09-03T17:22:44.875Z,18.08
2022-09-03T17:25:47.922Z,17.94
2022-09-03T17:28:53.189Z,17.77
2022-09-03T17:31:28.535Z,17.61
2022-09-03T17:34:23.932Z,17.45
2022-09-03T17:37:13.236Z,17.27
2022-09-03T17:39:46.887Z,17.08
2022-09-03T17:42:30.379Z,16.95
2022-09-03T17:45:28.667Z,16.82
2022-09-03T17:48:20.439Z,16.69
2022-09-03T17:51:01.638Z,16.54
2022-09-03T17:53:44.217Z,16.43
2022-09-03T17:56:30.360Z,16.30
2022-09-03T17:59:14.877Z,16.18
2022-09-03T18:01:53.086Z,16.07
2022-09-03T18:04:34.329Z,15.94
2022-09-03T18:07:29.514Z,15.79
2022-09-03T18:10:22.156Z,15.63
2022-09-03T18:13:01.428Z,15.50
2022-09-03T18:15:51.857Z,15.39
2022-09-03T18:18:31.022Z,15.24
2022-09-03T18:21:25.450Z,15.12
2022-09-03T18:24:25.068Z,14.99
2022-09-03T18:27:17.887Z,14.89
2022-09-03T18:30:20.273Z,14.79
2022-09-03T18:33:07.260Z,14.69
2022-09-03T18:35:55.185Z,14.60
2022-09-03T18:38:46.822Z,14.53
2022-09-03T18:42:06.287Z,14.45
2022-09-03T18:45:21.692Z,14.34
2022-09-03T18:48:37.731Z,14.24
2022-09-03T18:51:37.733Z,14.17
2022-09-03T18:55:06.232Z,14.12
2022-09-03T18:57:58.636Z,14.04
2022-09-03T19:00:53.784Z,13.96
2022-09-03T19:04:10.038Z,13.91
2022-09-03T19:07:15.523Z,13.84
2022-09-03T19:10:21.213Z,13.78
2022-09-03T19:13:29.830Z,13.73
2022-09-03T19:16:28.423Z,13.66
2022-09-03T19:19:53.808Z,13.58
2022-09-03T19:22:53.911Z,13.50
2022-09-03T19:25:41.865Z,13.45
2022-09-03T19:28:36.096Z,13.41
2022-09-03T19:31:37.798Z,13.34
2022-09-03T19:34:51.713Z,13.27
2022-09-03T19:37:53.696Z,13.20
2022-09-03T19:40:56.743Z,13.15
2022-09-03T19:43:52.284Z,13.10
2022-09-03T19:47:16.531Z,13.03
2022-09-03T19:50:13.200Z,12.97
2022-09-03T19:53:06.446Z,12.93
2022-09-03T19:55:57.906Z,12.89
2022-09-03T19:58:48.268Z,12.83
2022-09-03T20:01:36.370Z,12.78
2022-09-03T20:04:31.586Z,12.72
2022-09-03T20:07:25.442Z,12.66
2022-09-03T20:10:15.446Z,12.59
2022-09-03T20:12:49.815Z,12.52
2022-09-03T20:15:22.674Z,12.49
2022-09-03T20:18:16.827Z,12.47
2022-09-03T20:20:54.686Z,12.43
2022-09-03T20:23:25.043Z,12.38
2022-09-03T20:26:17.737Z,12.35
2022-09-03T20:29:14.576Z,12.30
2022-09-03T20:31:54.064Z,12.26
2022-09-03T20:34:31.969Z,12.22
2022-09-03T20:37:30.932Z,12.16
2022-09-03T20:40:17.449Z,12.10
2022-09-03T20:42:48.022Z,12.07
2022-09-03T20:45:24.760Z,12.05
2022-09-03T20:48:04.728Z,12.03
2022-09-03T20:50:53.337Z,11.98
2022-09-03T20:53:50.350Z,11.94
2022-09-03T20:56:33.100Z,11.89
2022-09-03T20:59:25.002Z,11.86
2022-09-03T21:02:09.457Z,11.81
2022-09-03T21:05:22.150Z,11.79
2022-09-03T21:07:55.917Z,11.76
2022-09-03T21:10:43.257Z,11.74
2022-09-03T21:13:22.578Z,11.69
2022-09-03T21:16:03.641Z,11.67
2022-09-03T21:19:04.692Z,11.66
2022-09-03T21:21:53.413Z,11.65
2022-09-03T21:24:34.194Z,11.63
2022-09-03T21:27:08.746Z,11.61
2022-09-03T21:30:01.122Z,11.59
2022-09-03T21:32:37.968Z,11.55
2022-09-03T21:35:15.811Z,11.52
2022-09-03T21:37:52.529Z,11.50
2022-09-03T21:40:24.431Z,11.47
2022-09-03T21:43:08.678Z,11.45
2022-09-03T21:45:47.126Z,11.43
2022-09-03T21:48:53.955Z,11.41
2022-09-03T21:51:33.567Z,11.36
2022-09-03T21:54:08.204Z,11.28
2022-09-03T21:56:58.184Z,11.30
2022-09-03T21:59:58.811Z,11.30
2022-09-03T22:02:32.912Z,11.28
2022-09-03T22:05:03.166Z,11.26
2022-09-03T22:07:54.601Z,11.26
2022-09-03T22:10:25.800Z,11.25
2022-09-03T22:13:21.117Z,11.24
2022-09-03T22:15:50.889Z,11.23
2022-09-03T22:18:29.397Z,11.24
2022-09-03T22:21:13.335Z,11.24
2022-09-03T22:24:10.394Z,11.23
2022-09-03T22:27:26.114Z,11.22
2022-09-03T22:30:13.902Z,11.18
2022-09-03T22:32:47.280Z,11.16
2022-09-03T22:35:46.762Z,11.14
2022-09-03T22:38:23.959Z,11.11
2022-09-03T22:41:12.398Z,11.07
2022-09-03T22:43:43.727Z,11.06
2022-09-03T22:46:17.910Z,11.03
2022-09-03T22:49:07.379Z,11.02
2022-09-03T22:52:15.621Z,11.00
2022-09-03T22:55:23.398Z,10.90
2022-09-03T22:58:03.694Z,10.86
2022-09-03T23:00:47.256Z,10.81
2022-09-03T23:03:21.244Z,10.77
2022-09-03T23:06:03.959Z,10.74
2022-09-03T23:08:52.075Z,10.71
2022-09-03T23:11:27.830Z,10.64
2022-09-03T23:14:09.918Z,10.59
2022-09-03T23:17:00.625Z,10.53
2022-09-03T23:19:45.587Z,10.46
2022-09-03T23:22:22.007Z,10.40
2022-09-03T23:25:03.135Z,10.33
2022-09-03T23:27:48.179Z,10.28
2022-09-03T23:30:16.895Z,10.25
2022-09-03T23:32:44.736Z,10.19
2022-09-03T23:35:18.351Z,10.14
2022-09-03T23:37:47.133Z,10.13
2022-09-03T23:40:30.578Z,10.11
2022-09-03T23:43:18.519Z,10.05
2022-09-03T23:46:07.968Z,9.99
2022-09-03T23:48:47.656Z,9.95
2022-09-03T23:51:22.910Z,9.91
2022-09-03T23:53:50.640Z,9.86
2022-09-03T23:56:51.323Z,9.80
2022-09-03T23:59:31.276Z,9.73
